Time;durP1;ratioP1;P1;durP2;ratioP2;P2;SDS_P1;SDS_P2;PMS_P1;PMS_P2;Temp;Humidity;BMP_temperature;BMP_pressure;BME280_temperature;BME280_humidity;BME280_pressure;Samples;Min_cycle;Max_cycle;Signal;HPM_P1;HPM_P2
2021/11/09 00:00:35;;;;;;;0.80;0.80;;;0.90;99.90;;;;;;5032758;28;20670;-79
2021/11/09 00:03:06;;;;;;;0.70;0.70;;;0.90;99.90;;;;;;5031780;28;20209;-81
2021/11/09 00:05:32;;;;;;;0.70;0.70;;;0.90;99.90;;;;;;5033750;28;20197;-80
2021/11/09 00:08:01;;;;;;;0.80;0.80;;;1.00;99.90;;;;;;5037606;28;20208;-80
2021/11/09 00:10:28;;;;;;;0.60;0.60;;;1.00;99.90;;;;;;5036368;28;20285;-80
2021/11/09 00:13:01;;;;;;;0.70;0.70;;;1.00;99.90;;;;;;5037604;28;20213;-80
2021/11/09 00:15:28;;;;;;;0.60;0.60;;;1.00;99.90;;;;;;5037376;28;20672;-80
2021/11/09 00:17:57;;;;;;;0.55;0.55;;;1.00;99.90;;;;;;5037591;28;20259;-78
2021/11/09 00:20:25;;;;;;;0.70;0.70;;;1.10;99.90;;;;;;5036092;28;20218;-80
2021/11/09 00:22:52;;;;;;;0.60;0.60;;;1.20;99.90;;;;;;5037494;28;20209;-80
2021/11/09 00:25:19;;;;;;;0.70;0.70;;;1.20;99.90;;;;;;5037465;28;20663;-78
2021/11/09 00:27:45;;;;;;;0.70;0.70;;;1.20;99.90;;;;;;5037093;28;20736;-80
2021/11/09 00:30:13;;;;;;;0.70;0.70;;;1.20;99.90;;;;;;5036077;28;20205;-80
2021/11/09 00:32:42;;;;;;;0.70;0.70;;;1.20;99.90;;;;;;5036967;28;20249;-81
2021/11/09 00:35:09;;;;;;;0.70;0.70;;;1.20;99.90;;;;;;5035888;28;20249;-81
2021/11/09 00:37:35;;;;;;;0.60;0.60;;;1.20;99.90;;;;;;5035861;28;20221;-77
2021/11/09 00:40:01;;;;;;;0.70;0.70;;;1.20;99.90;;;;;;5036158;28;20233;-78
2021/11/09 00:42:27;;;;;;;0.73;0.73;;;1.20;99.90;;;;;;5036948;28;20220;-78
2021/11/09 00:44:53;;;;;;;0.70;0.70;;;1.20;99.90;;;;;;5037414;28;20205;-79
2021/11/09 00:47:18;;;;;;;0.75;0.75;;;1.30;99.90;;;;;;5035803;28;20228;-79
2021/11/09 00:49:44;;;;;;;0.60;0.60;;;1.30;99.90;;;;;;5035876;28;20205;-81
2021/11/09 00:52:11;;;;;;;0.60;0.60;;;1.30;99.90;;;;;;5037316;28;20232;-78
2021/11/09 00:54:38;;;;;;;0.57;0.57;;;1.30;99.90;;;;;;5035753;28;20252;-79
2021/11/09 00:57:04;;;;;;;0.60;0.60;;;1.30;99.90;;;;;;5035090;28;20205;-79
2021/11/09 00:59:30;;;;;;;0.50;0.50;;;1.30;99.90;;;;;;5036616;28;20225;-79
2021/11/09 01:01:56;;;;;;;0.70;0.70;;;1.30;99.90;;;;;;5051344;28;20267;-78
2021/11/09 01:04:23;;;;;;;0.70;0.70;;;1.30;99.90;;;;;;5034423;28;20205;-78
2021/11/09 01:06:48;;;;;;;0.70;0.70;;;1.30;99.90;;;;;;5053425;28;20707;-78
2021/11/09 01:09:14;;;;;;;0.80;0.80;;;1.30;99.90;;;;;;5054724;28;20205;-81
2021/11/09 01:11:40;;;;;;;0.60;0.60;;;1.30;99.90;;;;;;5036244;28;20232;-80
2021/11/09 01:14:07;;;;;;;0.60;0.60;;;1.30;99.90;;;;;;5036599;28;20267;-79
2021/11/09 01:16:33;;;;;;;0.60;0.60;;;1.30;99.90;;;;;;5035278;28;20691;-79
2021/11/09 01:19:04;;;;;;;0.57;0.57;;;1.30;99.90;;;;;;5052302;28;20240;-79
2021/11/09 01:21:30;;;;;;;0.70;0.70;;;1.30;99.90;;;;;;5036059;28;20289;-79
2021/11/09 01:23:56;;;;;;;0.70;0.70;;;1.30;99.90;;;;;;5037449;28;20217;-79
2021/11/09 01:26:23;;;;;;;0.80;0.80;;;1.30;99.90;;;;;;5036139;28;20656;-79
2021/11/09 01:28:53;;;;;;;0.65;0.65;;;1.30;99.90;;;;;;5036128;28;20256;-81
2021/11/09 01:31:19;;;;;;;0.60;0.60;;;1.30;99.90;;;;;;5036437;28;20680;-80
2021/11/09 01:33:44;;;;;;;0.65;0.65;;;1.30;99.90;;;;;;5035233;28;20300;-79
2021/11/09 01:36:10;;;;;;;0.70;0.70;;;1.40;99.90;;;;;;5054153;28;20229;-79
2021/11/09 01:38:36;;;;;;;0.65;0.65;;;1.40;99.90;;;;;;5052782;28;20645;-80
2021/11/09 01:41:04;;;;;;;0.73;0.73;;;1.40;99.90;;;;;;5034600;28;20205;-80
2021/11/09 01:43:31;;;;;;;0.60;0.60;;;1.50;99.90;;;;;;5036140;28;20225;-79
2021/11/09 01:45:58;;;;;;;0.60;0.60;;;1.40;99.90;;;;;;5034761;28;20679;-80
2021/11/09 01:48:24;;;;;;;0.70;0.70;;;1.40;99.90;;;;;;5034741;28;20201;-80
2021/11/09 01:50:57;;;;;;;0.80;0.80;;;1.40;99.90;;;;;;5034750;28;20201;-79
2021/11/09 01:53:23;;;;;;;0.57;0.57;;;1.40;99.90;;;;;;5036016;28;20284;-79
2021/11/09 01:55:50;;;;;;;0.60;0.60;;;1.50;99.90;;;;;;5034767;28;20197;-79
2021/11/09 01:58:17;;;;;;;0.60;0.60;;;1.50;99.90;;;;;;5026263;28;20201;-79
2021/11/09 02:00:50;;;;;;;0.70;0.70;;;1.50;99.90;;;;;;5017337;28;20293;-84
2021/11/09 02:03:17;;;;;;;0.43;0.43;;;1.50;99.90;;;;;;5035201;28;20637;-82
2021/11/09 02:05:43;;;;;;;0.70;0.70;;;1.50;99.90;;;;;;5043520;28;20202;-82
2021/11/09 02:08:10;;;;;;;0.70;0.70;;;1.60;99.90;;;;;;5053766;28;20202;-83
2021/11/09 02:10:39;;;;;;;0.70;0.70;;;1.60;99.90;;;;;;5034209;28;20205;-83
2021/11/09 02:13:06;;;;;;;0.77;0.77;;;1.60;99.90;;;;;;5035174;28;20202;-82
2021/11/09 02:15:34;;;;;;;0.60;0.60;;;1.60;99.90;;;;;;5052296;28;20206;-82
2021/11/09 02:18:00;;;;;;;0.50;0.50;;;1.60;99.90;;;;;;5033508;28;20672;-83
2021/11/09 02:20:29;;;;;;;0.70;0.70;;;1.50;99.90;;;;;;5051819;28;20217;-82
2021/11/09 02:22:56;;;;;;;0.60;0.60;;;1.50;99.90;;;;;;5034461;28;20352;-82
2021/11/09 02:25:23;;;;;;;0.63;0.63;;;1.50;99.90;;;;;;5051912;28;20201;-81
2021/11/09 02:27:50;;;;;;;0.60;0.60;;;1.50;99.90;;;;;;5034087;28;20660;-82
2021/11/09 02:30:19;;;;;;;0.57;0.57;;;1.60;99.90;;;;;;5033682;28;20584;-81
2021/11/09 02:32:45;;;;;;;0.60;0.60;;;1.60;99.90;;;;;;5033871;28;20212;-81
2021/11/09 02:35:13;;;;;;;0.75;0.75;;;1.60;99.90;;;;;;5035038;28;20226;-80
2021/11/09 02:37:40;;;;;;;0.70;0.70;;;1.60;99.90;;;;;;5033202;28;20584;-82
2021/11/09 02:40:08;;;;;;;0.70;0.70;;;1.70;99.90;;;;;;5035234;28;20205;-79
2021/11/09 02:42:41;;;;;;;0.57;0.57;;;1.70;99.90;;;;;;5033218;28;20222;-79
2021/11/09 02:45:50;;;;;;;0.70;0.70;;;1.70;99.90;;;;;;5033678;28;20210;-80
2021/11/09 02:48:36;;;;;;;0.73;0.73;;;1.70;99.90;;;;;;5049360;28;20342;-82
2021/11/09 02:51:01;;;;;;;0.60;0.60;;;1.70;99.90;;;;;;5048655;28;20209;-81
2021/11/09 02:53:35;;;;;;;0.70;0.70;;;1.60;99.90;;;;;;5050883;28;20362;-82
2021/11/09 02:56:11;;;;;;;0.70;0.70;;;1.60;99.90;;;;;;5033144;28;20201;-83
2021/11/09 02:58:53;;;;;;;0.63;0.63;;;1.60;99.90;;;;;;5033291;28;20205;-82
2021/11/09 03:06:29;;;;;;;0.60;0.60;;;1.60;99.90;;;;;;5050489;28;20252;-82
2021/11/09 03:11:30;;;;;;;0.60;0.60;;;1.60;99.90;;;;;;5052800;28;20247;-81
2021/11/09 03:13:57;;;;;;;1.10;1.10;;;1.70;99.90;;;;;;5033969;28;20635;-80
2021/11/09 03:16:24;;;;;;;0.70;0.70;;;1.60;99.90;;;;;;5050198;28;20201;-83
2021/11/09 03:19:07;;;;;;;0.60;0.60;;;1.70;99.90;;;;;;5033635;28;20672;-82
2021/11/09 03:46:39;;;;;;;0.60;0.60;;;1.70;99.90;;;;;;5055031;28;20685;-83
2021/11/09 03:49:06;;;;;;;0.70;0.70;;;1.80;99.90;;;;;;5036904;28;20197;-82
2021/11/09 03:51:34;;;;;;;0.68;0.68;;;1.80;99.90;;;;;;5036707;28;20219;-82
2021/11/09 03:54:02;;;;;;;0.60;0.60;;;1.80;99.90;;;;;;5055031;28;20229;-84
2021/11/09 03:56:40;;;;;;;0.70;0.70;;;1.90;99.90;;;;;;5054629;28;20220;-84
2021/11/09 03:59:12;;;;;;;0.65;0.65;;;1.90;99.90;;;;;;5036678;28;20205;-85
2021/11/09 04:01:45;;;;;;;0.70;0.70;;;1.90;99.90;;;;;;5054170;28;20331;-84
2021/11/09 04:04:26;;;;;;;0.80;0.80;;;1.90;99.90;;;;;;5026416;28;20230;-84
2021/11/09 04:07:03;;;;;;;0.60;0.60;;;1.90;99.90;;;;;;5035998;28;20209;-84
2021/11/09 04:20:26;;;;;;;0.80;0.80;;;1.90;99.90;;;;;;5030615;28;20569;-84
2021/11/09 04:23:43;;;;;;;0.70;0.70;;;1.90;99.90;;;;;;5029225;28;20213;-83
2021/11/09 05:11:03;;;;;;;0.80;0.80;;;2.10;99.90;;;;;;5053643;28;20578;-84
2021/11/09 05:13:29;;;;;;;0.70;0.70;;;2.00;99.90;;;;;;5035432;28;20198;-82
2021/11/09 05:15:55;;;;;;;0.70;0.70;;;2.00;99.90;;;;;;5036851;28;20591;-83
2021/11/09 05:18:22;;;;;;;0.50;0.50;;;2.00;99.90;;;;;;5036021;28;20212;-82
2021/11/09 05:20:48;;;;;;;0.60;0.60;;;2.00;99.90;;;;;;5037234;28;20296;-82
2021/11/09 05:23:15;;;;;;;0.68;0.68;;;2.00;99.90;;;;;;5035960;28;20683;-85
2021/11/09 05:25:41;;;;;;;0.65;0.65;;;2.00;99.90;;;;;;5037431;28;20229;-82
2021/11/09 05:28:08;;;;;;;0.65;0.65;;;2.00;99.90;;;;;;5046079;28;20205;-82
2021/11/09 05:30:36;;;;;;;0.70;0.70;;;2.00;99.90;;;;;;5034433;28;20223;-84
2021/11/09 05:33:03;;;;;;;0.70;0.70;;;2.00;99.90;;;;;;5053812;28;20232;-81
2021/11/09 05:35:28;;;;;;;0.60;0.60;;;2.00;99.90;;;;;;5034919;28;20571;-81
2021/11/09 05:37:56;;;;;;;0.70;0.70;;;1.90;99.90;;;;;;5035326;28;20225;-82
2021/11/09 05:40:31;;;;;;;0.50;0.50;;;1.90;99.90;;;;;;5053443;28;20657;-81
2021/11/09 05:42:58;;;;;;;0.60;0.60;;;1.80;99.90;;;;;;5034344;28;20622;-80
2021/11/09 05:45:24;;;;;;;0.47;0.47;;;1.80;99.90;;;;;;5034874;28;20248;-80
2021/11/09 05:47:50;;;;;;;0.60;0.60;;;1.80;99.90;;;;;;5027689;28;20201;-80
2021/11/09 05:50:16;;;;;;;0.70;0.70;;;1.70;99.90;;;;;;5035343;28;20205;-79
2021/11/09 05:52:42;;;;;;;0.65;0.65;;;1.60;99.90;;;;;;5034090;28;20232;-81
2021/11/09 05:55:08;;;;;;;0.70;0.70;;;1.50;99.90;;;;;;5034939;28;20249;-79
2021/11/09 05:57:34;;;;;;;0.70;0.70;;;1.40;99.90;;;;;;5035907;28;20296;-81
2021/11/09 06:00:02;;;;;;;0.70;0.70;;;1.30;99.90;;;;;;5034682;28;20678;-79
2021/11/09 06:02:28;;;;;;;0.60;0.60;;;1.20;99.90;;;;;;5034523;28;20677;-80
2021/11/09 06:04:54;;;;;;;0.75;0.75;;;1.20;99.90;;;;;;5044005;28;20200;-80
2021/11/09 06:07:20;;;;;;;0.73;0.73;;;1.10;99.90;;;;;;5034457;28;20201;-81
2021/11/09 06:09:46;;;;;;;0.70;0.70;;;1.20;99.90;;;;;;5035807;28;20198;-82
2021/11/09 06:12:12;;;;;;;0.82;0.82;;;1.10;99.90;;;;;;5035652;28;20258;-80
2021/11/09 06:14:37;;;;;;;0.70;0.70;;;1.10;99.90;;;;;;5034301;28;20212;-80
2021/11/09 06:17:04;;;;;;;0.60;0.60;;;1.10;99.90;;;;;;5034199;28;20197;-80
2021/11/09 06:19:29;;;;;;;0.70;0.70;;;1.10;99.90;;;;;;5033953;28;20202;-79
2021/11/09 06:21:55;;;;;;;0.70;0.70;;;1.00;99.90;;;;;;5035251;28;20242;-81
2021/11/09 06:24:23;;;;;;;0.75;0.75;;;1.10;99.90;;;;;;5033899;28;20228;-82
2021/11/09 06:26:49;;;;;;;1.05;0.95;;;1.00;99.90;;;;;;5031749;28;20225;-81
2021/11/09 06:29:15;;;;;;;0.70;0.70;;;1.00;99.90;;;;;;5034050;28;20677;-83
2021/11/09 06:31:41;;;;;;;0.60;0.60;;;1.00;99.90;;;;;;5034046;28;20297;-81
2021/11/09 06:34:07;;;;;;;0.70;0.70;;;1.00;99.90;;;;;;5034165;28;20723;-82
2021/11/09 06:36:33;;;;;;;0.60;0.60;;;1.10;99.90;;;;;;5051852;28;20244;-82
2021/11/09 06:38:59;;;;;;;0.60;0.60;;;1.10;99.90;;;;;;5052126;28;20205;-86
2021/11/09 06:41:24;;;;;;;0.70;0.70;;;1.10;99.90;;;;;;5033936;28;20304;-82
2021/11/09 06:43:50;;;;;;;0.60;0.60;;;1.10;99.90;;;;;;5033925;28;20311;-82
2021/11/09 06:46:16;;;;;;;0.70;0.70;;;1.20;99.90;;;;;;5034011;28;20198;-83
2021/11/09 06:48:44;;;;;;;0.70;0.70;;;1.10;99.90;;;;;;5033683;28;20564;-82
2021/11/09 06:51:10;;;;;;;0.68;0.68;;;1.20;99.90;;;;;;5035208;28;20233;-83
2021/11/09 06:53:36;;;;;;;0.68;0.68;;;1.20;99.90;;;;;;5033524;28;20261;-80
2021/11/09 06:56:02;;;;;;;0.63;0.63;;;1.20;99.90;;;;;;5033520;28;20205;-80
2021/11/09 06:58:27;;;;;;;1.25;1.25;;;1.20;99.90;;;;;;5034625;28;20296;-81
2021/11/09 07:00:53;;;;;;;0.70;0.70;;;1.20;99.90;;;;;;5031971;28;20574;-81
2021/11/09 07:03:19;;;;;;;0.70;0.70;;;1.30;99.90;;;;;;5051333;28;20205;-80
2021/11/09 07:05:45;;;;;;;0.70;0.70;;;1.30;99.90;;;;;;5033453;28;20208;-81
2021/11/09 07:08:11;;;;;;;0.80;0.80;;;1.30;99.90;;;;;;5033646;28;20212;-81
2021/11/09 07:10:37;;;;;;;0.80;0.80;;;1.40;99.90;;;;;;5034647;28;20637;-81
2021/11/09 07:13:03;;;;;;;0.70;0.70;;;1.40;99.90;;;;;;5051340;28;20185;-80
2021/11/09 07:15:28;;;;;;;0.98;0.98;;;1.50;99.90;;;;;;5050235;28;20255;-81
2021/11/09 07:17:55;;;;;;;0.70;0.70;;;1.50;99.90;;;;;;5033246;28;20270;-79
2021/11/09 07:20:21;;;;;;;0.73;0.73;;;1.60;99.90;;;;;;5050884;28;20201;-83
2021/11/09 07:22:48;;;;;;;0.55;0.55;;;1.70;99.90;;;;;;5033329;28;20232;-82
2021/11/09 07:25:14;;;;;;;0.73;0.73;;;1.70;99.90;;;;;;5049227;28;20551;-81
2021/11/09 07:27:41;;;;;;;0.63;0.63;;;1.80;99.90;;;;;;5033157;28;20292;-81
2021/11/09 07:30:09;;;;;;;0.70;0.70;;;1.90;99.90;;;;;;5034248;28;20664;-81
2021/11/09 07:32:36;;;;;;;0.60;0.60;;;2.00;99.90;;;;;;5043057;28;20205;-82
2021/11/09 07:35:03;;;;;;;0.50;0.50;;;2.00;99.90;;;;;;5032972;28;20256;-82
2021/11/09 07:37:28;;;;;;;0.60;0.60;;;2.00;99.90;;;;;;5033063;28;20286;-83
2021/11/09 07:39:55;;;;;;;0.60;0.60;;;2.10;99.90;;;;;;5033254;28;20205;-81
2021/11/09 07:42:20;;;;;;;1.23;1.15;;;2.20;99.90;;;;;;5032603;28;20521;-83
2021/11/09 07:44:47;;;;;;;0.60;0.60;;;2.30;99.90;;;;;;5033149;28;20209;-82
2021/11/09 07:47:13;;;;;;;0.60;0.60;;;2.30;99.90;;;;;;5033163;28;20247;-81
2021/11/09 07:49:39;;;;;;;0.68;0.68;;;2.40;99.90;;;;;;5032803;28;20218;-82
2021/11/09 07:52:07;;;;;;;0.70;0.70;;;2.50;99.90;;;;;;5034547;28;20213;-82
2021/11/09 07:54:35;;;;;;;0.60;0.60;;;2.60;99.90;;;;;;5032877;28;20194;-83
2021/11/09 07:57:05;;;;;;;0.63;0.63;;;2.70;99.90;;;;;;5032978;28;20193;-83
2021/11/09 07:59:53;;;;;;;0.60;0.60;;;2.70;99.90;;;;;;5032891;28;20205;-82
2021/11/09 08:02:28;;;;;;;0.60;0.60;;;2.80;99.90;;;;;;5032837;28;20583;-83
2021/11/09 08:05:02;;;;;;;0.50;0.50;;;2.90;99.90;;;;;;5032821;28;20205;-85
2021/11/09 08:07:31;;;;;;;0.60;0.60;;;2.90;99.90;;;;;;5032925;28;20299;-84
2021/11/09 08:09:58;;;;;;;0.57;0.57;;;3.00;99.90;;;;;;5032863;28;20198;-83
2021/11/09 08:12:24;;;;;;;0.65;0.65;;;3.00;99.90;;;;;;5032423;28;20213;-84
2021/11/09 08:14:50;;;;;;;0.65;0.65;;;3.00;99.90;;;;;;5032890;28;20295;-84
2021/11/09 08:17:17;;;;;;;0.65;0.65;;;3.10;99.90;;;;;;5032649;28;20328;-84
2021/11/09 08:19:43;;;;;;;0.80;0.80;;;3.10;99.90;;;;;;5032702;28;20276;-84
2021/11/09 08:22:09;;;;;;;0.60;0.60;;;3.20;99.90;;;;;;5032490;28;20209;-83
2021/11/09 08:24:35;;;;;;;0.60;0.60;;;3.30;99.90;;;;;;5033818;28;20228;-83
2021/11/09 08:27:10;;;;;;;0.70;0.70;;;3.30;99.90;;;;;;5051650;28;20284;-84
2021/11/09 08:29:36;;;;;;;0.52;0.52;;;3.40;99.90;;;;;;5034600;28;20205;-84
2021/11/09 08:32:02;;;;;;;0.55;0.55;;;3.40;99.90;;;;;;5036272;28;20234;-84
2021/11/09 08:34:31;;;;;;;0.60;0.60;;;3.50;99.90;;;;;;5036817;28;20288;-82
2021/11/09 08:36:58;;;;;;;0.50;0.50;;;3.70;99.90;;;;;;5020566;28;20202;-84
2021/11/09 08:39:37;;;;;;;0.65;0.65;;;3.80;99.90;;;;;;5036672;28;20598;-84
2021/11/09 08:44:34;;;;;;;0.55;0.55;;;4.00;99.90;;;;;;5053995;28;20210;-82
2021/11/09 08:47:01;;;;;;;0.60;0.60;;;4.00;99.90;;;;;;5035585;28;20669;-82
2021/11/09 08:49:32;;;;;;;0.50;0.50;;;4.20;99.90;;;;;;5053652;28;20204;-82
2021/11/09 08:52:00;;;;;;;0.70;0.70;;;4.20;99.90;;;;;;5053113;28;20273;-82
2021/11/09 09:04:55;;;;;;;0.90;0.90;;;4.30;99.90;;;;;;5038716;28;20247;-82
2021/11/09 09:07:23;;;;;;;0.60;0.60;;;4.40;99.90;;;;;;5053199;28;20557;-83
2021/11/09 09:09:49;;;;;;;0.50;0.50;;;4.40;99.90;;;;;;5054726;28;20189;-83
2021/11/09 09:12:15;;;;;;;0.60;0.60;;;4.40;99.90;;;;;;5035500;28;20212;-82
2021/11/09 09:14:41;;;;;;;0.60;0.60;;;4.40;99.90;;;;;;5034965;28;20206;-83
2021/11/09 09:17:07;;;;;;;0.70;0.70;;;4.40;99.90;;;;;;5035439;28;20208;-82
2021/11/09 09:19:41;;;;;;;0.77;0.77;;;4.40;99.90;;;;;;5035256;28;20205;-83
2021/11/09 09:22:12;;;;;;;0.70;0.70;;;4.50;99.90;;;;;;5034784;28;20270;-82
2021/11/09 09:52:14;;;;;;;0.60;0.60;;;4.70;99.90;;;;;;5031646;28;20224;-82
2021/11/09 09:56:53;;;;;;;0.55;0.55;;;4.90;99.90;;;;;;5031239;28;20194;-82
2021/11/09 09:59:25;;;;;;;0.52;0.52;;;4.90;99.90;;;;;;5014654;28;20355;-83
2021/11/09 10:02:15;;;;;;;0.60;0.60;;;5.00;99.90;;;;;;5014850;28;20343;-83
2021/11/09 10:04:54;;;;;;;0.70;0.70;;;5.00;99.90;;;;;;4998974;28;20816;-82
2021/11/09 10:07:41;;;;;;;0.60;0.60;;;5.00;99.90;;;;;;5031754;28;20199;-82
2021/11/09 10:10:10;;;;;;;0.55;0.55;;;5.10;99.90;;;;;;5016499;28;20206;-81
2021/11/09 10:12:44;;;;;;;0.55;0.55;;;5.00;99.90;;;;;;5014208;28;20202;-82
2021/11/09 10:15:21;;;;;;;0.60;0.60;;;5.00;99.90;;;;;;5012167;28;20225;-81
2021/11/09 10:17:51;;;;;;;0.68;0.68;;;5.00;99.90;;;;;;5015718;28;20205;-82
2021/11/09 10:20:20;;;;;;;0.85;0.85;;;5.00;99.90;;;;;;5012980;28;20205;-82
2021/11/09 10:22:58;;;;;;;0.60;0.60;;;5.10;99.90;;;;;;5012710;28;20210;-82
2021/11/09 10:25:25;;;;;;;0.70;0.70;;;5.10;99.90;;;;;;5012776;28;20198;-82
2021/11/09 10:27:57;;;;;;;1.13;1.13;;;5.10;99.90;;;;;;5012846;28;20194;-82
2021/11/09 10:30:27;;;;;;;0.63;0.63;;;5.10;99.90;;;;;;5014095;28;20206;-82
2021/11/09 10:32:53;;;;;;;0.60;0.60;;;5.10;99.90;;;;;;5014361;28;20240;-82
2021/11/09 10:35:22;;;;;;;0.70;0.70;;;5.10;99.90;;;;;;5004475;28;20693;-83
2021/11/09 10:37:51;;;;;;;0.70;0.70;;;5.10;99.90;;;;;;5035510;28;20202;-81
2021/11/09 10:40:27;;;;;;;0.70;0.70;;;5.10;99.90;;;;;;5033844;28;20201;-80
2021/11/09 10:42:56;;;;;;;0.60;0.60;;;5.10;99.90;;;;;;5032909;28;20205;-80
2021/11/09 10:45:26;;;;;;;0.65;0.65;;;5.10;99.90;;;;;;5051101;28;20201;-81
2021/11/09 10:47:57;;;;;;;0.75;0.75;;;5.10;99.90;;;;;;5033700;28;20197;-83
2021/11/09 10:50:27;;;;;;;0.70;0.70;;;5.20;99.90;;;;;;5033735;28;20300;-82
2021/11/09 10:53:10;;;;;;;0.93;0.93;;;5.20;99.90;;;;;;5032848;28;20575;-82
2021/11/09 10:55:49;;;;;;;0.60;0.60;;;5.20;99.90;;;;;;5050785;28;20201;-81
2021/11/09 10:58:44;;;;;;;0.60;0.60;;;5.30;99.90;;;;;;5034748;28;20233;-82
2021/11/09 11:06:36;;;;;;;0.60;0.60;;;5.30;99.90;;;;;;5036124;28;20201;-81
2021/11/09 11:09:10;;;;;;;0.50;0.50;;;5.40;99.90;;;;;;5021702;28;20209;-82
2021/11/09 11:11:46;;;;;;;0.70;0.70;;;5.30;99.90;;;;;;5033883;28;20641;-82
2021/11/09 11:14:21;;;;;;;0.60;0.60;;;5.40;99.90;;;;;;5033703;28;20205;-82
2021/11/09 11:16:50;;;;;;;0.60;0.60;;;5.40;99.90;;;;;;5034140;28;20201;-84
2021/11/09 11:19:21;;;;;;;0.77;0.77;;;5.40;99.90;;;;;;5051402;28;20202;-83
2021/11/09 11:21:48;;;;;;;0.60;0.60;;;5.50;99.90;;;;;;5035039;28;20206;-84
2021/11/09 11:24:15;;;;;;;0.57;0.57;;;5.50;99.90;;;;;;5031902;28;20237;-83
2021/11/09 11:26:46;;;;;;;0.60;0.60;;;5.50;99.90;;;;;;5033430;28;20699;-84
2021/11/09 11:29:21;;;;;;;0.57;0.57;;;5.50;99.90;;;;;;5033534;28;20288;-83
2021/11/09 11:31:48;;;;;;;0.80;0.80;;;5.50;99.90;;;;;;5034893;28;20742;-83
2021/11/09 11:34:17;;;;;;;0.57;0.57;;;5.50;99.90;;;;;;5016381;28;20210;-85
2021/11/09 11:36:44;;;;;;;0.60;0.60;;;5.60;99.90;;;;;;5034982;28;20700;-84
2021/11/09 11:39:11;;;;;;;0.60;0.60;;;5.60;99.90;;;;;;5052542;28;20205;-84
2021/11/09 11:41:43;;;;;;;0.60;0.60;;;5.60;99.90;;;;;;5033179;28;20211;-85
2021/11/09 11:44:10;;;;;;;0.50;0.50;;;5.70;99.90;;;;;;5033012;28;20230;-83
2021/11/09 11:46:36;;;;;;;0.50;0.50;;;5.70;99.90;;;;;;5031606;28;20284;-84
2021/11/09 11:49:12;;;;;;;0.60;0.60;;;5.80;99.90;;;;;;5051537;28;20285;-83
2021/11/09 11:51:59;;;;;;;0.70;0.70;;;5.80;99.90;;;;;;5051118;28;20208;-83
2021/11/09 11:54:45;;;;;;;0.57;0.57;;;5.80;99.90;;;;;;5016508;28;20206;-84
2021/11/09 11:57:24;;;;;;;0.60;0.60;;;5.80;99.90;;;;;;5034096;28;20205;-83
2021/11/09 11:59:50;;;;;;;0.80;0.80;;;5.80;99.90;;;;;;5033041;28;20224;-83
2021/11/09 12:02:38;;;;;;;0.55;0.55;;;5.90;99.90;;;;;;5034437;28;20198;-82
2021/11/09 12:05:05;;;;;;;0.68;0.68;;;5.90;99.90;;;;;;5036206;28;20232;-84
2021/11/09 12:07:54;;;;;;;0.60;0.60;;;5.90;99.90;;;;;;5054365;28;20600;-83
2021/11/09 12:10:20;;;;;;;0.57;0.57;;;6.00;99.90;;;;;;5020496;28;20283;-84
2021/11/09 12:13:04;;;;;;;0.70;0.70;;;6.10;99.90;;;;;;5036786;28;20209;-84
2021/11/09 12:15:56;;;;;;;0.60;0.60;;;6.10;99.90;;;;;;5036562;28;20253;-83
2021/11/09 12:18:28;;;;;;;0.60;0.60;;;6.10;99.90;;;;;;5024361;28;20243;-84
2021/11/09 12:20:57;;;;;;;0.60;0.60;;;6.10;99.90;;;;;;5035186;28;20273;-85
2021/11/09 12:23:24;;;;;;;0.50;0.50;;;6.20;99.90;;;;;;5037887;28;20229;-84
2021/11/09 12:25:51;;;;;;;0.60;0.60;;;6.20;99.90;;;;;;5036418;28;20207;-84
2021/11/09 12:28:17;;;;;;;0.60;0.60;;;6.30;99.90;;;;;;5036629;28;20205;-84
2021/11/09 12:30:50;;;;;;;0.60;0.60;;;6.30;99.90;;;;;;5036452;28;20201;-83
2021/11/09 12:33:23;;;;;;;0.50;0.50;;;6.30;99.90;;;;;;5038093;28;20192;-83
2021/11/09 12:35:58;;;;;;;0.45;0.45;;;6.40;99.90;;;;;;5037583;28;20695;-84
2021/11/09 12:38:33;;;;;;;1.10;1.00;;;6.40;99.90;;;;;;5036108;28;20289;-85
2021/11/09 12:41:01;;;;;;;0.65;0.65;;;6.40;99.90;;;;;;5055235;28;20286;-85
2021/11/09 12:43:32;;;;;;;0.60;0.60;;;6.50;99.90;;;;;;5035923;28;20670;-84
2021/11/09 12:46:11;;;;;;;0.60;0.60;;;6.40;99.90;;;;;;5037143;28;20213;-82
2021/11/09 12:48:49;;;;;;;0.60;0.60;;;6.50;99.90;;;;;;5019769;28;20201;-82
2021/11/09 12:51:16;;;;;;;0.60;0.60;;;6.50;99.90;;;;;;5020025;28;20572;-84
2021/11/09 12:53:44;;;;;;;0.60;0.60;;;6.60;99.90;;;;;;5036073;28;20669;-82
2021/11/09 12:56:15;;;;;;;0.70;0.70;;;6.60;99.90;;;;;;5036102;28;20266;-81
2021/11/09 12:59:06;;;;;;;0.50;0.50;;;6.60;99.90;;;;;;5036066;28;20209;-82
2021/11/09 13:04:21;;;;;;;0.60;0.60;;;6.60;99.90;;;;;;5053940;28;20224;-81
2021/11/09 13:09:48;;;;;;;0.70;0.70;;;6.70;99.90;;;;;;5051995;28;20557;-83
2021/11/09 13:12:19;;;;;;;0.50;0.50;;;6.80;99.90;;;;;;5035568;28;20217;-83
2021/11/09 13:14:49;;;;;;;0.50;0.50;;;6.80;99.90;;;;;;5035593;28;20205;-81
2021/11/09 13:17:31;;;;;;;0.60;0.60;;;6.80;99.90;;;;;;5034143;28;20287;-82
2021/11/09 13:20:20;;;;;;;0.50;0.50;;;6.90;99.90;;;;;;5054777;28;20197;-83
2021/11/09 13:23:02;;;;;;;0.60;0.60;;;6.90;99.90;;;;;;5045132;28;20679;-83
2021/11/09 13:25:43;;;;;;;0.70;0.70;;;6.90;99.90;;;;;;5053620;28;20193;-84
2021/11/09 13:28:11;;;;;;;0.60;0.60;;;7.00;99.90;;;;;;5036838;28;20204;-84
2021/11/09 13:30:39;;;;;;;0.70;0.70;;;7.00;99.90;;;;;;5035266;28;21781;-85
2021/11/09 13:33:05;;;;;;;0.55;0.55;;;7.00;99.90;;;;;;5036653;28;20342;-85
2021/11/09 13:35:43;;;;;;;0.70;0.70;;;7.10;99.90;;;;;;5035278;28;20225;-83
2021/11/09 13:38:17;;;;;;;0.70;0.70;;;7.10;99.90;;;;;;5035311;28;20213;-83
2021/11/09 13:40:52;;;;;;;0.80;0.80;;;7.10;99.90;;;;;;5034829;28;20205;-84
2021/11/09 13:43:25;;;;;;;0.80;0.80;;;7.10;99.90;;;;;;5053008;28;20209;-84
2021/11/09 13:46:08;;;;;;;0.60;0.60;;;7.10;99.90;;;;;;5034971;28;20251;-82
2021/11/09 13:48:36;;;;;;;0.70;0.70;;;7.20;99.90;;;;;;5053097;28;20197;-82
2021/11/09 13:51:05;;;;;;;0.70;0.70;;;7.30;99.90;;;;;;5053982;28;20204;-82
2021/11/09 13:53:36;;;;;;;0.60;0.60;;;7.30;99.90;;;;;;5034663;28;20625;-84
2021/11/09 13:56:04;;;;;;;0.60;0.60;;;7.30;99.90;;;;;;5052952;28;20679;-84
2021/11/09 13:58:30;;;;;;;0.60;0.60;;;7.40;99.90;;;;;;5033676;28;20283;-84
2021/11/09 14:01:03;;;;;;;0.50;0.50;;;7.40;99.90;;;;;;5036042;28;20221;-85
2021/11/09 14:16:40;;;;;;;0.70;0.70;;;7.60;99.90;;;;;;5052542;28;20204;-83
2021/11/09 14:19:09;;;;;;;0.60;0.60;;;7.60;99.90;;;;;;5034320;28;20209;-84
2021/11/09 14:21:42;;;;;;;0.70;0.70;;;7.60;99.90;;;;;;5035329;28;20209;-85
2021/11/09 14:24:23;;;;;;;0.70;0.70;;;7.70;99.90;;;;;;5033985;28;20215;-83
2021/11/09 14:27:06;;;;;;;0.70;0.70;;;7.70;99.90;;;;;;5034395;28;20204;-82
2021/11/09 14:29:36;;;;;;;0.65;0.65;;;7.70;99.90;;;;;;5033964;28;20278;-85
2021/11/09 14:32:05;;;;;;;0.60;0.60;;;7.70;99.90;;;;;;5034546;28;20683;-84
2021/11/09 14:34:32;;;;;;;0.70;0.70;;;7.70;99.90;;;;;;5034303;28;20271;-84
2021/11/09 14:37:21;;;;;;;0.70;0.70;;;7.80;99.90;;;;;;5034180;28;20211;-84
2021/11/09 14:40:11;;;;;;;0.50;0.50;;;7.80;99.90;;;;;;5032892;28;20206;-84
2021/11/09 14:48:15;;;;;;;0.70;0.70;;;7.90;99.90;;;;;;5051961;28;20236;-84
2021/11/09 14:50:52;;;;;;;0.60;0.60;;;7.90;99.90;;;;;;5033556;28;20251;-84
2021/11/09 14:53:25;;;;;;;0.73;0.73;;;7.90;99.90;;;;;;5033950;28;20608;-85
2021/11/09 14:56:01;;;;;;;0.70;0.70;;;7.90;99.90;;;;;;5032441;28;20210;-83
2021/11/09 14:58:42;;;;;;;0.60;0.60;;;8.00;99.90;;;;;;5033519;28;20205;-83
2021/11/09 15:01:38;;;;;;;0.70;0.70;;;8.00;99.90;;;;;;5035099;28;20201;-83
2021/11/09 15:04:34;;;;;;;0.60;0.60;;;8.00;99.90;;;;;;5033294;28;20684;-81
2021/11/09 15:12:19;;;;;;;0.70;0.70;;;8.10;99.90;;;;;;5053415;28;20189;-82
2021/11/09 15:28:31;;;;;;;0.60;0.60;;;8.20;99.90;;;;;;5051590;28;20208;-84
2021/11/09 15:33:31;;;;;;;0.60;0.60;;;8.20;99.90;;;;;;5051436;28;20197;-84
2021/11/09 15:38:26;;;;;;;0.70;0.70;;;8.20;99.90;;;;;;5055074;28;20205;-82
2021/11/09 15:40:52;;;;;;;0.50;0.50;;;8.20;99.90;;;;;;5037470;28;20556;-84
2021/11/09 15:43:19;;;;;;;0.60;0.60;;;8.20;99.90;;;;;;5037301;28;20209;-84
2021/11/09 15:45:45;;;;;;;0.50;0.50;;;8.20;99.90;;;;;;5037478;28;20665;-83
2021/11/09 15:48:13;;;;;;;0.50;0.50;;;8.20;99.90;;;;;;5037081;28;20201;-83
2021/11/09 15:50:39;;;;;;;0.60;0.60;;;8.30;99.90;;;;;;5037091;28;20727;-83
2021/11/09 15:53:05;;;;;;;0.60;0.60;;;8.30;99.90;;;;;;5037080;28;20197;-82
2021/11/09 15:55:31;;;;;;;0.60;0.60;;;8.30;99.90;;;;;;5037085;28;20288;-83
2021/11/09 15:57:57;;;;;;;0.57;0.57;;;8.30;99.90;;;;;;5019930;28;20562;-87
2021/11/09 16:00:23;;;;;;;0.60;0.60;;;8.30;99.90;;;;;;5036273;28;20280;-83
2021/11/09 16:02:49;;;;;;;0.68;0.68;;;8.30;99.90;;;;;;5034986;28;20292;-84
2021/11/09 16:05:16;;;;;;;0.63;0.63;;;8.40;99.90;;;;;;5040127;28;20202;-83
2021/11/09 16:07:43;;;;;;;0.65;0.65;;;8.40;99.90;;;;;;5038062;28;20217;-84
2021/11/09 16:10:11;;;;;;;0.60;0.60;;;8.40;99.90;;;;;;5037989;28;20298;-83
2021/11/09 16:12:37;;;;;;;0.60;0.60;;;8.40;99.90;;;;;;5036640;28;20266;-83
2021/11/09 16:15:06;;;;;;;0.60;0.60;;;8.40;99.90;;;;;;5038074;28;20208;-81
2021/11/09 16:17:32;;;;;;;0.68;0.68;;;8.50;99.90;;;;;;5055826;28;20571;-84